Sapulpa, OK (74066)

4:25 AM CST on December 27, 2014 (GMT -0600)
Kiefer, OK | Change Station
CLOSE
Current Station
Personal Weather Station
Location: Kiefer, OK
Elevation: 699 ft
Nearby Weather Stations

Elev 699 ft 35.94 °N, 96.04 °W | Updated 9 seconds ago

Overcast
Overcast
34.3 °F
Feels Like 27 °F
N
9.0
Wind Variable Wind from NNW
Gusts 12.0 mph

Today
High -- | Low -- °F
--% Chance of Precip.
Yesterday
High -- | Low -- °F
Precip. -- in
7:33 AM 5:17 PM
Waxing Crescent, 35% visible
Pressure 30.19 in
Visibility 10.0 miles
Clouds Scattered Clouds 6000 ft
Overcast 7500 ft
Windchill 27 °F
Dew Point 20 °F
Humidity 82%
Rainfall -999.00 in
Snow Depth Not available.
UV 0 out of 12
Pollen 6.50 out of 12
Air Quality Not available.
Flu Activity Not available.
METAR KRVS 270953Z AUTO 34007KT 10SM -RA SCT060 OVC075 03/00 A3017 RMK AO2 SLP222 P0001 T00280000

More Conditions Fewer Conditions

Pressure 30.19 in
Visibility 10.0 miles
Clouds Scattered Clouds 6000 ft
Overcast 7500 ft
Windchill 27 °F
Dew Point 20 °F
Humidity 82%
Rainfall -999.00 in
Snow Depth Not available.
UV 0 out of 12
Pollen 6.50 out of 12
Air Quality Not available.
Flu Activity Not available.
METAR KRVS 270953Z AUTO 34007KT 10SM -RA SCT060 OVC075 03/00 A3017 RMK AO2 SLP222 P0001 T00280000

More Conditions Fewer Conditions

10-Day Weather Forecast

Almanac

Astronomy

Dec. 27, 2014 Rise Set
Actual Time
Civil Twilight
Nautical Twilight
Astronomical Twilight
Moon
Length of Visible Light
Length of Day
Tomorrow will be .
, % of the Moon is Illuminated

Today's Extremes

State Highs State Lows

Community

WunderPhotos

Upload Photos

1,780,869 photos uploaded!

WunderBlogs® & News

Nearby

Air Quality

  Air Quality AQ Index Pollutant
Not available.

Snow Depth

Station Depth Elevation

Earthquake Activity

City Distance Mag. Time & Date
Minimum magnitude displayed is 2.5.

Coastal Water Temperatures

Place Temperature

Nearby Weather Stations